createdAt,value
2018-07-14T06:33:58.886Z,23.50
2018-07-14T06:36:28.559Z,23.60
2018-07-14T06:38:56.780Z,23.60
2018-07-14T06:41:25.010Z,23.90
2018-07-14T06:43:53.028Z,23.80
2018-07-14T06:46:21.263Z,24.00
2018-07-14T06:48:49.560Z,24.10
2018-07-14T06:51:17.990Z,24.00
2018-07-14T06:58:41.778Z,24.20
2018-07-14T07:01:09.879Z,24.30
2018-07-14T07:03:38.310Z,24.40
2018-07-14T07:08:34.993Z,24.60
2018-07-14T07:11:03.802Z,24.90
2018-07-14T07:13:32.723Z,25.20
2018-07-14T07:16:01.650Z,25.50
2018-07-14T07:18:30.137Z,25.90
2018-07-14T07:23:28.092Z,26.40
2018-07-14T07:25:56.905Z,26.60
2018-07-14T07:30:54.220Z,26.70
2018-07-14T07:35:51.229Z,26.90
2018-07-14T07:40:49.391Z,27.30
2018-07-14T07:43:17.883Z,27.30
2018-07-14T07:45:46.247Z,27.30
2018-07-14T07:48:15.046Z,27.30
2018-07-14T07:50:43.526Z,27.10
2018-07-14T07:53:11.977Z,27.20
2018-07-14T07:55:40.354Z,27.40
2018-07-14T07:58:08.671Z,27.70
2018-07-14T08:00:37.103Z,28.00
2018-07-14T08:05:33.905Z,28.50
2018-07-14T08:08:02.621Z,28.10
2018-07-14T08:10:31.257Z,28.00
2018-07-14T08:12:59.673Z,27.80
2018-07-14T08:15:28.134Z,28.00
2018-07-14T08:17:57.038Z,28.20
2018-07-14T08:25:21.990Z,29.20
2018-07-14T08:27:50.946Z,29.60
2018-07-14T08:30:20.038Z,29.60
2018-07-14T08:32:48.588Z,29.80
2018-07-14T08:35:16.925Z,30.00
2018-07-14T08:40:14.898Z,30.50
2018-07-14T08:42:44.207Z,30.80
2018-07-14T08:45:12.486Z,31.20
2018-07-14T08:47:40.620Z,31.70
2018-07-14T08:50:08.975Z,32.10
2018-07-14T08:52:37.469Z,32.00
2018-07-14T08:55:05.794Z,32.00
2018-07-14T08:57:34.130Z,32.40
2018-07-14T09:00:02.592Z,32.90
2018-07-14T09:02:30.920Z,33.30
2018-07-14T09:07:26.933Z,32.80
2018-07-14T09:14:51.221Z,32.60
2018-07-14T09:17:19.617Z,32.30
2018-07-14T09:22:16.151Z,31.80
2018-07-14T09:27:13.437Z,31.70
2018-07-14T09:29:41.765Z,32.00
2018-07-14T09:37:06.220Z,32.60
2018-07-14T09:39:34.509Z,32.60
2018-07-14T09:44:30.499Z,32.40
2018-07-14T09:46:58.942Z,32.20
2018-07-14T09:49:28.309Z,31.80
2018-07-14T09:51:57.316Z,31.40
2018-07-14T10:01:51.099Z,31.90
2018-07-14T10:06:48.822Z,32.30
2018-07-14T10:09:17.618Z,32.20
2018-07-14T10:11:46.484Z,32.10
2018-07-14T10:14:15.195Z,32.30
2018-07-14T10:16:43.555Z,32.40
2018-07-14T10:19:12.219Z,32.40
2018-07-14T10:24:09.162Z,32.10
2018-07-14T10:26:37.630Z,32.00
2018-07-14T10:31:35.562Z,31.50
2018-07-14T10:34:03.895Z,31.40
2018-07-14T10:36:32.262Z,31.10
2018-07-14T10:39:01.758Z,31.30
2018-07-14T10:46:27.090Z,31.20
2018-07-14T10:48:55.891Z,31.10
2018-07-14T10:51:24.498Z,31.00
2018-07-14T10:53:54.526Z,31.00
2018-07-14T10:56:22.973Z,31.00
2018-07-14T10:58:51.169Z,30.50
2018-07-14T11:01:19.915Z,30.20
2018-07-14T11:03:48.834Z,30.20
2018-07-14T11:08:45.236Z,30.10
2018-07-14T11:11:14.011Z,30.30
2018-07-14T11:16:11.326Z,31.10
2018-07-14T11:23:36.526Z,31.00
2018-07-14T11:26:05.215Z,30.80
2018-07-14T11:28:33.818Z,30.30
2018-07-14T11:31:02.616Z,29.80
2018-07-14T11:33:31.514Z,29.80
2018-07-14T11:36:00.367Z,30.10
2018-07-14T11:38:29.262Z,30.40
2018-07-14T11:40:58.235Z,30.40
2018-07-14T11:45:56.740Z,30.60
2018-07-14T11:48:25.482Z,30.50
2018-07-14T11:55:50.928Z,30.00
2018-07-14T12:03:16.069Z,30.10
2018-07-14T12:05:44.661Z,30.10
2018-07-14T12:08:13.110Z,30.40
2018-07-14T12:10:41.882Z,30.50
2018-07-14T12:13:10.542Z,30.50
2018-07-14T12:15:39.258Z,30.50
2018-07-14T12:18:07.858Z,30.70
2018-07-14T12:20:36.595Z,30.60
2018-07-14T12:23:04.921Z,30.70
2018-07-14T12:28:01.590Z,30.70
2018-07-14T12:30:30.497Z,30.50
2018-07-14T12:32:59.083Z,30.40
2018-07-14T12:35:28.572Z,30.30
2018-07-14T12:37:57.048Z,30.10
2018-07-14T12:45:22.174Z,30.60
2018-07-14T12:47:50.916Z,30.80
2018-07-14T12:50:19.565Z,30.90
2018-07-14T12:52:48.286Z,31.00
2018-07-14T12:57:45.046Z,30.70
2018-07-14T13:02:41.641Z,30.70
2018-07-14T13:07:39.552Z,30.70
2018-07-14T13:10:08.824Z,30.60
2018-07-14T13:17:34.643Z,30.80
2018-07-14T13:20:03.250Z,30.90
2018-07-14T13:22:32.010Z,30.50
2018-07-14T13:27:29.288Z,29.80
2018-07-14T13:37:22.990Z,28.00
2018-07-14T13:42:21.621Z,27.90
2018-07-14T13:44:50.530Z,27.90
2018-07-14T13:47:19.082Z,27.90
2018-07-14T13:49:48.188Z,28.00
2018-07-14T13:52:16.767Z,28.00
2018-07-14T13:54:46.142Z,28.00
2018-07-14T13:59:43.089Z,27.90
2018-07-14T14:02:11.751Z,27.70
2018-07-14T14:09:37.884Z,27.30
2018-07-14T14:12:06.832Z,27.10
2018-07-14T14:14:35.830Z,27.00
2018-07-14T14:19:32.706Z,27.20
2018-07-14T14:24:31.129Z,27.40
2018-07-14T14:26:59.450Z,27.60
2018-07-14T14:29:28.079Z,27.70
2018-07-14T14:31:56.790Z,27.90
2018-07-14T14:34:25.266Z,28.10
2018-07-14T14:36:54.018Z,28.20
2018-07-14T14:39:22.935Z,28.30
2018-07-14T14:41:51.518Z,28.20
2018-07-14T14:44:19.962Z,28.00
2018-07-14T14:46:48.393Z,27.90
2018-07-14T14:51:46.024Z,27.80
2018-07-14T14:56:43.138Z,27.80
2018-07-14T14:59:12.129Z,27.80
2018-07-14T15:01:40.910Z,27.90
2018-07-14T15:04:09.409Z,27.90
2018-07-14T15:06:37.864Z,27.90
2018-07-14T15:09:06.857Z,28.00
2018-07-14T15:14:05.218Z,28.10
2018-07-14T15:16:34.004Z,28.10
2018-07-14T15:19:02.466Z,28.10
2018-07-14T15:21:30.811Z,28.00
2018-07-14T15:28:56.916Z,28.10
2018-07-14T15:31:25.350Z,28.20
2018-07-14T15:33:54.327Z,28.30
2018-07-14T15:36:23.071Z,28.30
2018-07-14T15:38:51.657Z,28.40
2018-07-14T15:41:20.538Z,28.40
2018-07-14T15:43:49.435Z,28.40
2018-07-14T15:48:47.250Z,28.50
2018-07-14T15:51:15.662Z,28.70
2018-07-14T15:53:44.126Z,28.80
2018-07-14T15:56:13.163Z,28.90
2018-07-14T15:58:41.922Z,28.90
2018-07-14T16:01:10.826Z,28.90
2018-07-14T16:06:07.526Z,28.90
2018-07-14T16:08:36.388Z,28.90
2018-07-14T16:11:05.130Z,28.90
2018-07-14T16:13:34.228Z,28.80
2018-07-14T16:16:02.988Z,28.70
2018-07-14T16:18:31.630Z,28.70
2018-07-14T16:21:00.642Z,28.60
2018-07-14T16:23:29.586Z,28.30
2018-07-14T16:25:58.342Z,28.50
2018-07-14T16:30:55.128Z,28.20
2018-07-14T16:33:23.794Z,28.10
2018-07-14T16:35:52.766Z,27.90
2018-07-14T16:38:22.327Z,27.50
2018-07-14T16:40:50.969Z,27.10
2018-07-14T16:43:19.742Z,26.90
2018-07-14T16:45:48.439Z,26.70
2018-07-14T16:48:17.074Z,26.70
2018-07-14T16:53:13.934Z,26.60
2018-07-14T16:55:42.618Z,26.60
2018-07-14T17:00:39.509Z,26.10
2018-07-14T17:08:04.672Z,25.90
2018-07-14T17:10:33.424Z,25.80
2018-07-14T17:13:01.957Z,25.70
2018-07-14T17:17:59.153Z,25.60
2018-07-14T17:20:27.854Z,25.40
2018-07-14T17:22:56.497Z,25.30
2018-07-14T17:27:53.299Z,25.10
2018-07-14T17:32:50.298Z,24.80
2018-07-14T17:35:19.087Z,24.80
2018-07-14T17:37:48.602Z,24.70
2018-07-14T17:42:45.342Z,24.50
2018-07-14T17:45:14.119Z,24.50
2018-07-14T17:50:10.800Z,24.50
2018-07-14T17:55:08.066Z,24.50
2018-07-14T17:57:37.398Z,24.50
2018-07-14T18:00:05.906Z,24.40
2018-07-14T18:02:34.129Z,24.40
2018-07-14T18:05:02.320Z,24.30
2018-07-14T18:07:30.655Z,24.40
2018-07-14T18:09:59.038Z,24.50
2018-07-14T18:12:27.427Z,24.50
2018-07-14T18:14:55.780Z,24.50
2018-07-14T18:22:20.010Z,24.30
2018-07-14T18:24:48.403Z,24.20
2018-07-14T18:27:16.762Z,24.00
2018-07-14T18:32:13.050Z,23.70
2018-07-14T18:34:41.230Z,23.60
2018-07-14T18:37:09.366Z,23.50
2018-07-14T18:39:37.701Z,23.50
2018-07-14T18:42:05.996Z,23.50
2018-07-14T18:44:34.206Z,23.40
2018-07-14T18:49:30.416Z,23.30
2018-07-14T18:51:58.747Z,23.20
2018-07-14T18:54:27.074Z,23.10
2018-07-14T18:56:55.954Z,23.00
2018-07-14T18:59:24.546Z,22.90
2018-07-14T19:04:20.618Z,22.70
2018-07-14T19:09:16.662Z,22.60
2018-07-14T19:11:46.554Z,22.50
2018-07-14T19:14:14.654Z,22.40
2018-07-14T19:16:42.786Z,22.40
2018-07-14T19:21:38.992Z,22.30
2018-07-14T19:24:07.272Z,22.30
2018-07-14T19:29:05.303Z,22.20
2018-07-14T19:31:33.634Z,22.30
2018-07-14T19:36:29.784Z,22.40
2018-07-14T19:38:57.830Z,22.30
2018-07-14T19:41:25.912Z,22.20
2018-07-14T19:43:54.027Z,22.10
2018-07-14T19:48:50.102Z,22.00
2018-07-14T19:53:46.598Z,22.00
2018-07-14T19:56:14.752Z,21.90
2018-07-14T20:01:11.226Z,21.70
2018-07-14T20:03:39.514Z,21.70
2018-07-14T20:08:36.054Z,21.60
2018-07-14T20:11:04.354Z,21.50
2018-07-14T20:13:32.674Z,21.50
2018-07-14T20:16:00.742Z,21.40
2018-07-14T20:18:28.813Z,21.30
2018-07-14T20:23:25.006Z,21.30
2018-07-14T20:25:53.138Z,21.20
2018-07-14T20:28:21.540Z,21.10
2018-07-14T20:30:49.783Z,21.20
2018-07-14T20:38:13.998Z,21.50
2018-07-14T20:40:42.074Z,21.40
2018-07-14T20:43:10.142Z,21.30
2018-07-14T20:45:38.270Z,21.10
2018-07-14T20:48:06.623Z,21.10
2018-07-14T20:50:34.689Z,20.90
2018-07-14T20:53:03.057Z,20.90
2018-07-14T20:55:31.093Z,20.90
2018-07-14T21:00:27.302Z,20.80
2018-07-14T21:02:56.612Z,20.80
2018-07-14T21:05:25.027Z,20.90
2018-07-14T21:07:53.393Z,20.80
2018-07-14T21:10:21.770Z,20.80
2018-07-14T21:15:17.897Z,20.70
2018-07-14T21:22:42.090Z,20.50
2018-07-14T21:25:10.115Z,20.60
2018-07-14T21:27:38.255Z,20.80
2018-07-14T21:30:06.672Z,20.60
2018-07-14T21:32:35.039Z,20.50
2018-07-14T21:37:31.220Z,20.40
2018-07-14T21:39:59.474Z,20.40
2018-07-14T21:44:55.594Z,20.30
2018-07-14T21:47:23.827Z,20.20
2018-07-14T21:57:17.490Z,20.30
2018-07-14T22:12:06.029Z,20.00
2018-07-14T22:19:30.202Z,19.90
2018-07-14T22:21:58.391Z,19.90
2018-07-14T22:24:26.589Z,19.90
2018-07-14T22:29:22.783Z,19.90
2018-07-14T22:31:50.904Z,19.80
2018-07-14T22:39:15.347Z,19.80
2018-07-14T22:41:45.295Z,19.80
2018-07-14T22:44:13.678Z,19.80
2018-07-14T22:49:09.858Z,19.70
2018-07-14T22:51:37.917Z,19.70
2018-07-14T22:56:35.181Z,19.70
2018-07-14T22:59:03.318Z,19.80
2018-07-14T23:01:31.394Z,19.80
2018-07-14T23:06:29.108Z,19.80
2018-07-14T23:13:53.356Z,19.60
2018-07-14T23:18:49.516Z,19.60
2018-07-14T23:21:17.619Z,19.50
2018-07-14T23:23:45.875Z,19.60
2018-07-14T23:26:14.211Z,19.60
2018-07-14T23:28:42.317Z,19.50
2018-07-14T23:31:10.397Z,19.60
2018-07-14T23:33:39.018Z,19.60
2018-07-14T23:36:07.521Z,19.60
2018-07-14T23:38:35.878Z,19.50
2018-07-14T23:43:32.351Z,19.40
2018-07-14T23:46:00.704Z,19.30
2018-07-14T23:48:29.010Z,19.30
2018-07-14T23:50:57.103Z,19.30
2018-07-14T23:53:25.238Z,19.30
